Mehtap Bayraktar — TCPB — position and weather

sailwx.info

Track history (hours):
 
Tides and Currents Weather Stations Pressure Air Temp Water Temp Dewpoint Dewpoint Depression Visibility Wind Speed Wind Dir Waves Ship Positions

Mehtap Bayraktar

Last reported at 2014-Sep-02 19:16 UTC. Time now 2014-Sep-02 23:46 UTC.
Position N 41°20' E 002°11'.

Length 114 m; draft 6.1 m.

Type: Cargo ship. MMSI: 271000578.

Date/timePositionNaut miles runAvg speedWind from/ knotsBaromVisibWave heightAir tempDewpointWater temp
2014-Sep-02 19:16N 41°20' E 002°11'14 0.4
2014-Sep-01 10:24N 41°08' E 002°20'1313.0
2014-Sep-01 09:22N 40°57' E 002°31'1012.6
2014-Sep-01 08:34N 40°49' E 002°40'1412.9
2014-Sep-01 07:29N 40°38' E 002°51'1812.6
2014-Sep-01 06:05N 40°24' E 003°05'812.3
2014-Sep-01 05:27N 40°18' E 003°11'2620.8
2014-Sep-01 04:11N 39°57' E 003°32'13511.5
2014-Aug-31 16:27N 37°52' E 004°38'1212.9
2014-Aug-31 15:33N 37°41' E 004°43'62 2.1
2014-Aug-30 09:27N 36°43' E 005°11'0 0.1
2014-Aug-30 08:33N 36°43' E 005°11'0 0.0
2014-Aug-30 07:30N 36°43' E 005°11'0 0.0
2014-Aug-30 06:18N 36°43' E 005°11'0 0.0
2014-Aug-30 04:30N 36°43' E 005°11'0 0.0
2014-Aug-30 03:33N 36°43' E 005°11'0 0.1
2014-Aug-30 02:30N 36°43' E 005°11'0 0.0
2014-Aug-29 18:18N 36°43' E 005°11'0 0.0
2014-Aug-29 13:06N 36°43' E 005°11'0 0.0
2014-Aug-29 05:32N 36°43' E 005°11'1 0.1
2014-Aug-28 06:33N 36°43' E 005°10'1 1.3
2014-Aug-28 05:33N 36°43' E 005°11'0 0.0
2014-Aug-28 04:27N 36°43' E 005°11'0 0.0
2014-Aug-28 03:33N 36°43' E 005°11'0 0.0
2014-Aug-28 01:27N 36°43' E 005°11'0 0.0
2014-Aug-28 00:30N 36°43' E 005°11'0 0.0
2014-Aug-27 23:21N 36°43' E 005°11'0 0.0
2014-Aug-27 22:30N 36°43' E 005°11'0 0.0
2014-Aug-27 20:12N 36°43' E 005°11'0 0.0
2014-Aug-27 19:33N 36°43' E 005°11'0 0.0
2014-Aug-27 13:27N 36°43' E 005°11'0 0.0
2014-Aug-27 11:33N 36°43' E 005°11'0 0.0
2014-Aug-27 09:06N 36°43' E 005°11'0 0.0
2014-Aug-27 05:18N 36°43' E 005°11'0 0.0
2014-Aug-27 04:12N 36°43' E 005°11'0 0.0
2014-Aug-27 03:33N 36°43' E 005°11'0 0.0
2014-Aug-27 01:24N 36°43' E 005°11'0 0.0
2014-Aug-26 23:07N 36°43' E 005°11'0 0.0
2014-Aug-26 22:33N 36°43' E 005°11'0 0.1
2014-Aug-26 21:30N 36°43' E 005°11'0 0.1
2014-Aug-26 20:27N 36°43' E 005°11'2 2.5
2014-Aug-26 19:33N 36°44' E 005°09'1111.4
2014-Aug-26 18:33N 36°54' E 005°02'1313.0
2014-Aug-26 17:34N 36°60' E 004°47'1212.4
2014-Aug-26 16:33N 36°60' E 004°31'1313.3
2014-Aug-26 15:33N 36°60' E 004°15'1413.5
2014-Aug-26 14:33N 36°60' E 003°58'1413.6
2014-Aug-26 13:33N 36°58' E 003°41'1313.1
2014-Aug-26 12:33N 36°55' E 003°25'1212.3
2014-Aug-26 11:33N 36°51' E 003°10'7 0.2
2014-Aug-24 21:33N 36°46' E 003°04'2 0.8
2014-Aug-24 19:06N 36°48' E 003°05'  
Track history (hours):
 
Tides and Currents Weather Stations Pressure Air Temp Water Temp Dewpoint Dewpoint Depression Visibility Wind Speed Wind Dir Waves Ship Positions

Mehtap Bayraktar

Last reported at 2014-Sep-02 19:16 UTC. Time now 2014-Sep-02 23:46 UTC.
Position N 41°20' E 002°11'.

Length 114 m; draft 6.1 m.

Type: Cargo ship. MMSI: 271000578.

Date/timePositionNaut miles runAvg speedWind from/ knotsBaromVisibWave heightAir tempDewpointWater temp
2014-Sep-02 19:16N 41°20' E 002°11'14 0.4
2014-Sep-01 10:24N 41°08' E 002°20'1313.0
2014-Sep-01 09:22N 40°57' E 002°31'1012.6
2014-Sep-01 08:34N 40°49' E 002°40'1412.9
2014-Sep-01 07:29N 40°38' E 002°51'1812.6
2014-Sep-01 06:05N 40°24' E 003°05'812.3
2014-Sep-01 05:27N 40°18' E 003°11'2620.8
2014-Sep-01 04:11N 39°57' E 003°32'13511.5
2014-Aug-31 16:27N 37°52' E 004°38'1212.9
2014-Aug-31 15:33N 37°41' E 004°43'62 2.1
2014-Aug-30 09:27N 36°43' E 005°11'0 0.1
2014-Aug-30 08:33N 36°43' E 005°11'0 0.0
2014-Aug-30 07:30N 36°43' E 005°11'0 0.0
2014-Aug-30 06:18N 36°43' E 005°11'0 0.0
2014-Aug-30 04:30N 36°43' E 005°11'0 0.0
2014-Aug-30 03:33N 36°43' E 005°11'0 0.1
2014-Aug-30 02:30N 36°43' E 005°11'0 0.0
2014-Aug-29 18:18N 36°43' E 005°11'0 0.0
2014-Aug-29 13:06N 36°43' E 005°11'0 0.0
2014-Aug-29 05:32N 36°43' E 005°11'1 0.1
2014-Aug-28 06:33N 36°43' E 005°10'1 1.3
2014-Aug-28 05:33N 36°43' E 005°11'0 0.0
2014-Aug-28 04:27N 36°43' E 005°11'0 0.0
2014-Aug-28 03:33N 36°43' E 005°11'0 0.0
2014-Aug-28 01:27N 36°43' E 005°11'0 0.0
2014-Aug-28 00:30N 36°43' E 005°11'0 0.0
2014-Aug-27 23:21N 36°43' E 005°11'0 0.0
2014-Aug-27 22:30N 36°43' E 005°11'0 0.0
2014-Aug-27 20:12N 36°43' E 005°11'0 0.0
2014-Aug-27 19:33N 36°43' E 005°11'0 0.0
2014-Aug-27 13:27N 36°43' E 005°11'0 0.0
2014-Aug-27 11:33N 36°43' E 005°11'0 0.0
2014-Aug-27 09:06N 36°43' E 005°11'0 0.0
2014-Aug-27 05:18N 36°43' E 005°11'0 0.0
2014-Aug-27 04:12N 36°43' E 005°11'0 0.0
2014-Aug-27 03:33N 36°43' E 005°11'0 0.0
2014-Aug-27 01:24N 36°43' E 005°11'0 0.0
2014-Aug-26 23:07N 36°43' E 005°11'0 0.0
2014-Aug-26 22:33N 36°43' E 005°11'0 0.1
2014-Aug-26 21:30N 36°43' E 005°11'0 0.1
2014-Aug-26 20:27N 36°43' E 005°11'2 2.5
2014-Aug-26 19:33N 36°44' E 005°09'1111.4
2014-Aug-26 18:33N 36°54' E 005°02'1313.0
2014-Aug-26 17:34N 36°60' E 004°47'1212.4
2014-Aug-26 16:33N 36°60' E 004°31'1313.3
2014-Aug-26 15:33N 36°60' E 004°15'1413.5
2014-Aug-26 14:33N 36°60' E 003°58'1413.6
2014-Aug-26 13:33N 36°58' E 003°41'1313.1
2014-Aug-26 12:33N 36°55' E 003°25'1212.3
2014-Aug-26 11:33N 36°51' E 003°10'7 0.2
2014-Aug-24 21:33N 36°46' E 003°04'2 0.8
2014-Aug-24 19:06N 36°48' E 003°05'  

Dump ship's entire track history